createdAt,value
2022-12-01T00:00:27.837Z,103106.70
2022-12-01T00:01:50.801Z,103109.71
2022-12-01T00:02:54.241Z,103108.43
2022-12-01T00:03:57.185Z,103111.58
2022-12-01T00:05:00.081Z,103106.06
2022-12-01T00:06:18.250Z,103111.30
2022-12-01T00:07:21.127Z,103105.10
2022-12-01T00:08:24.359Z,103101.17
2022-12-01T00:09:46.155Z,103105.80
2022-12-01T00:10:49.332Z,103100.80
2022-12-01T00:11:52.309Z,103103.95
2022-12-01T00:12:57.193Z,103101.71
2022-12-01T00:14:00.229Z,103104.49
2022-12-01T00:15:03.227Z,103106.09
2022-12-01T00:16:14.431Z,103106.23
2022-12-01T00:17:17.289Z,103103.83
2022-12-01T00:18:20.155Z,103104.05
2022-12-01T00:19:27.464Z,103105.56
2022-12-01T00:20:30.417Z,103106.36
2022-12-01T00:21:33.246Z,103105.05
2022-12-01T00:22:36.110Z,103103.30
2022-12-01T00:23:38.941Z,103102.61
2022-12-01T00:24:42.087Z,103105.20
2022-12-01T00:25:44.970Z,103103.19
2022-12-01T00:26:47.808Z,103103.45
2022-12-01T00:27:52.612Z,103105.51
2022-12-01T00:28:58.246Z,103098.82
2022-12-01T00:30:01.796Z,103098.58
2022-12-01T00:31:12.486Z,103101.39
2022-12-01T00:32:15.539Z,103102.17
2022-12-01T00:33:18.482Z,103100.65
2022-12-01T00:34:24.332Z,103100.54
2022-12-01T00:35:27.453Z,103096.14
2022-12-01T00:36:30.342Z,103097.90
2022-12-01T00:37:35.160Z,103098.04
2022-12-01T00:38:38.290Z,103102.81
2022-12-01T00:39:41.180Z,103096.61
2022-12-01T00:40:44.408Z,103099.55
2022-12-01T00:41:47.319Z,103097.90
2022-12-01T00:42:51.172Z,103098.08
2022-12-01T00:43:54.046Z,103097.25
2022-12-01T00:44:57.151Z,103095.24
2022-12-01T00:46:00.312Z,103093.95
2022-12-01T00:47:03.304Z,103094.29
2022-12-01T00:48:06.258Z,103095.77
2022-12-01T00:49:12.876Z,103091.99
2022-12-01T00:50:17.968Z,103091.02
2022-12-01T00:51:20.965Z,103088.39
2022-12-01T00:52:23.964Z,103094.28
2022-12-01T00:53:26.812Z,103094.41
2022-12-01T00:54:32.199Z,103088.92
2022-12-01T00:55:35.492Z,103088.93
2022-12-01T00:56:38.703Z,103091.92
2022-12-01T00:57:41.657Z,103089.50
2022-12-01T00:58:44.585Z,103092.14
2022-12-01T00:59:47.667Z,103094.41
2022-12-01T01:01:01.715Z,103091.95
2022-12-01T01:02:08.798Z,103093.30
2022-12-01T01:03:12.019Z,103091.05
2022-12-01T01:04:15.399Z,103094.71
2022-12-01T01:05:18.365Z,103089.34
2022-12-01T01:06:21.214Z,103090.16
2022-12-01T01:07:24.412Z,103095.61
2022-12-01T01:08:27.340Z,103094.64
2022-12-01T01:09:32.045Z,103089.62
2022-12-01T01:10:41.883Z,103089.66
2022-12-01T01:11:44.748Z,103089.81
2022-12-01T01:12:47.821Z,103092.93
2022-12-01T01:13:50.737Z,103091.20
2022-12-01T01:14:53.710Z,103092.42
2022-12-01T01:16:05.688Z,103094.64
2022-12-01T01:17:08.648Z,103090.52
2022-12-01T01:18:12.544Z,103090.89
2022-12-01T01:19:16.762Z,103091.20
2022-12-01T01:20:19.618Z,103091.27
2022-12-01T01:21:26.896Z,103092.98
2022-12-01T01:22:29.830Z,103088.58
2022-12-01T01:23:33.323Z,103090.32
2022-12-01T01:24:36.278Z,103089.80
2022-12-01T01:25:39.267Z,103092.76
2022-12-01T01:26:42.218Z,103092.96
2022-12-01T01:27:45.063Z,103093.08
2022-12-01T01:28:49.444Z,103091.92
2022-12-01T01:29:52.320Z,103091.45
2022-12-01T01:30:55.254Z,103091.33
2022-12-01T01:31:58.375Z,103090.02
2022-12-01T01:33:01.330Z,103091.79
2022-12-01T01:34:04.853Z,103093.83
2022-12-01T01:35:08.345Z,103092.29
2022-12-01T01:36:11.862Z,103091.23
2022-12-01T01:37:14.864Z,103090.80
2022-12-01T01:38:18.218Z,103094.94
2022-12-01T01:39:21.324Z,103089.77
2022-12-01T01:40:24.321Z,103092.39
2022-12-01T01:41:27.584Z,103088.17
2022-12-01T01:42:30.460Z,103089.14
2022-12-01T01:43:55.001Z,103090.16
2022-12-01T01:44:59.142Z,103091.11
2022-12-01T01:46:02.086Z,103092.70
2022-12-01T01:47:05.129Z,103091.96
2022-12-01T01:48:09.559Z,103092.73
2022-12-01T01:49:14.829Z,103092.82
2022-12-01T01:50:21.789Z,103093.14
2022-12-01T01:51:33.586Z,103092.55
2022-12-01T01:52:48.262Z,103089.10
2022-12-01T01:53:56.123Z,103089.00
2022-12-01T01:55:00.169Z,103084.88
2022-12-01T01:56:04.720Z,103090.46
2022-12-01T01:57:10.769Z,103087.23
2022-12-01T01:58:14.054Z,103090.26
2022-12-01T01:59:21.354Z,103087.27
2022-12-01T02:00:25.616Z,103087.02
2022-12-01T02:01:29.473Z,103087.94
2022-12-01T02:02:33.319Z,103087.82
2022-12-01T02:03:39.861Z,103087.31
2022-12-01T02:04:47.709Z,103090.08
2022-12-01T02:05:50.897Z,103086.86
2022-12-01T02:06:55.562Z,103086.95
2022-12-01T02:08:00.263Z,103088.88
2022-12-01T02:09:03.486Z,103089.86
2022-12-01T02:10:09.628Z,103089.70
2022-12-01T02:11:33.926Z,103089.74
2022-12-01T02:12:52.143Z,103093.98
2022-12-01T02:14:14.080Z,103090.26
2022-12-01T02:15:35.938Z,103091.05
2022-12-01T02:16:56.247Z,103089.41
2022-12-01T02:18:19.822Z,103089.17
2022-12-01T02:19:54.316Z,103091.77
2022-12-01T02:21:03.606Z,103088.40
2022-12-01T02:22:28.108Z,103089.19
2022-12-01T02:24:07.995Z,103088.07
2022-12-01T02:25:22.970Z,103085.40
2022-12-01T02:27:03.685Z,103089.12
2022-12-01T02:28:35.448Z,103084.70
2022-12-01T02:29:57.162Z,103084.21
2022-12-01T02:32:51.119Z,103083.42
2022-12-01T02:33:59.137Z,103082.01
2022-12-01T02:35:20.898Z,103077.02
2022-12-01T02:36:37.343Z,103079.48
2022-12-01T02:37:53.823Z,103077.70
2022-12-01T02:39:10.969Z,103078.09
2022-12-01T02:40:37.834Z,103077.94
2022-12-01T02:41:52.589Z,103078.95
2022-12-01T02:43:05.401Z,103079.31
2022-12-01T02:44:34.379Z,103079.09
2022-12-01T02:46:16.356Z,103084.11
2022-12-01T02:47:19.865Z,103079.91
2022-12-01T02:48:28.850Z,103080.46
2022-12-01T02:49:39.253Z,103082.70
2022-12-01T02:50:43.043Z,103080.17
2022-12-01T02:51:48.716Z,103080.67
2022-12-01T02:52:53.835Z,103078.04
2022-12-01T02:54:02.800Z,103076.88
2022-12-01T02:55:06.337Z,103077.19
2022-12-01T02:56:14.689Z,103075.70
2022-12-01T02:57:17.630Z,103076.25
2022-12-01T02:58:21.647Z,103077.77
2022-12-01T02:59:25.024Z,103077.86
2022-12-01T03:00:30.583Z,103078.44
2022-12-01T03:01:39.759Z,103078.34
2022-12-01T03:03:05.536Z,103077.39
2022-12-01T03:04:39.229Z,103076.07
2022-12-01T03:05:49.503Z,103070.83
2022-12-01T03:07:11.010Z,103071.36
2022-12-01T03:08:32.643Z,103071.13
2022-12-01T03:09:49.057Z,103068.56
2022-12-01T03:10:55.214Z,103074.04
2022-12-01T03:12:06.901Z,103068.34
2022-12-01T03:13:41.330Z,103072.27
2022-12-01T03:15:15.357Z,103072.34
2022-12-01T03:16:29.152Z,103072.48
2022-12-01T03:17:42.523Z,103069.13
2022-12-01T03:18:55.671Z,103069.84
2022-12-01T03:20:20.726Z,103072.98
2022-12-01T03:21:32.502Z,103070.73
2022-12-01T03:22:41.679Z,103072.05
2022-12-01T03:23:50.408Z,103071.29
2022-12-01T03:24:55.845Z,103071.00
2022-12-01T03:26:01.908Z,103070.13
2022-12-01T03:27:06.215Z,103072.48
2022-12-01T03:28:21.098Z,103073.02
2022-12-01T03:29:31.354Z,103074.12
2022-12-01T03:30:36.657Z,103072.19
2022-12-01T03:31:45.802Z,103071.85
2022-12-01T03:32:57.593Z,103073.91
2022-12-01T03:34:11.126Z,103073.14
2022-12-01T03:35:20.585Z,103069.50
2022-12-01T03:36:54.952Z,103071.90
2022-12-01T03:38:05.189Z,103068.79
2022-12-01T03:39:14.960Z,103068.96
2022-12-01T03:40:22.573Z,103070.17
2022-12-01T03:41:31.807Z,103070.30
2022-12-01T03:42:41.656Z,103068.01
2022-12-01T03:43:51.649Z,103070.32
2022-12-01T03:44:58.447Z,103070.15
2022-12-01T03:46:09.176Z,103069.05
2022-12-01T03:47:23.697Z,103065.95
2022-12-01T03:48:27.667Z,103065.30
2022-12-01T03:49:31.755Z,103063.38
2022-12-01T03:50:43.968Z,103064.21
2022-12-01T03:51:56.065Z,103065.09
2022-12-01T03:53:31.762Z,103065.30
2022-12-01T03:54:46.638Z,103064.78
2022-12-01T03:55:57.181Z,103065.52
2022-12-01T03:57:03.333Z,103061.92
2022-12-01T03:58:11.381Z,103061.35
2022-12-01T03:59:16.982Z,103058.58
2022-12-01T04:00:20.550Z,103056.38
2022-12-01T04:01:23.983Z,103060.75
2022-12-01T04:02:28.926Z,103058.92
2022-12-01T04:03:32.085Z,103062.02
2022-12-01T04:04:35.133Z,103063.17
2022-12-01T04:05:38.115Z,103063.80
2022-12-01T04:06:43.312Z,103064.05
2022-12-01T04:07:46.254Z,103063.06
2022-12-01T04:08:49.169Z,103062.77
2022-12-01T04:09:52.333Z,103064.84
2022-12-01T04:10:55.301Z,103065.20
2022-12-01T04:12:16.569Z,103062.50
2022-12-01T04:13:25.825Z,103063.67
2022-12-01T04:14:30.081Z,103063.18
2022-12-01T04:15:33.046Z,103059.20
2022-12-01T04:16:36.213Z,103059.66
2022-12-01T04:17:40.526Z,103063.14
2022-12-01T04:18:43.473Z,103064.91
2022-12-01T04:19:46.616Z,103063.67
2022-12-01T04:20:50.624Z,103065.63
2022-12-01T04:21:53.582Z,103066.02
2022-12-01T04:22:56.532Z,103067.75
2022-12-01T04:24:02.081Z,103068.75
2022-12-01T04:25:06.597Z,103067.30
2022-12-01T04:26:15.448Z,103073.23
2022-12-01T04:27:19.819Z,103071.42
2022-12-01T04:28:22.722Z,103071.66
2022-12-01T04:29:25.636Z,103066.70
2022-12-01T04:30:28.542Z,103067.98
2022-12-01T04:31:31.735Z,103067.71
2022-12-01T04:32:42.934Z,103065.44
2022-12-01T04:33:45.936Z,103064.98
2022-12-01T04:34:48.817Z,103069.39
2022-12-01T04:36:01.322Z,103071.23
2022-12-01T04:37:05.985Z,103069.00
2022-12-01T04:38:09.027Z,103070.38
2022-12-01T04:39:11.874Z,103071.04
2022-12-01T04:40:14.797Z,103069.72
2022-12-01T04:41:17.757Z,103072.39
2022-12-01T04:42:20.859Z,103067.80
2022-12-01T04:43:23.899Z,103074.71
2022-12-01T04:44:31.459Z,103068.48
2022-12-01T04:45:38.215Z,103070.37
2022-12-01T04:46:41.585Z,103069.98
2022-12-01T04:47:44.729Z,103074.42
2022-12-01T04:48:48.140Z,103075.50
2022-12-01T04:49:51.987Z,103073.36
2022-12-01T04:50:55.236Z,103076.52
2022-12-01T04:51:58.638Z,103076.53
2022-12-01T04:53:01.754Z,103077.59
2022-12-01T04:54:05.867Z,103078.59
2022-12-01T04:55:09.302Z,103077.91
2022-12-01T04:56:12.397Z,103079.27
2022-12-01T04:57:15.563Z,103081.89
2022-12-01T04:58:18.485Z,103079.13
2022-12-01T04:59:21.677Z,103080.15
2022-12-01T05:00:24.652Z,103079.18
2022-12-01T05:01:28.145Z,103081.45
2022-12-01T05:02:31.115Z,103076.37
2022-12-01T05:03:42.518Z,103078.91
2022-12-01T05:04:48.090Z,103082.07
2022-12-01T05:06:01.222Z,103078.29
2022-12-01T05:07:04.288Z,103079.23
2022-12-01T05:08:07.316Z,103081.33
2022-12-01T05:09:17.408Z,103085.40
2022-12-01T05:10:21.087Z,103083.31
2022-12-01T05:11:24.946Z,103085.10
2022-12-01T05:12:27.873Z,103086.82
2022-12-01T05:13:30.944Z,103084.23
2022-12-01T05:14:33.907Z,103085.56
2022-12-01T05:15:36.873Z,103083.60
2022-12-01T05:16:39.874Z,103085.47
2022-12-01T05:17:42.945Z,103084.02
2022-12-01T05:19:20.214Z,103084.89
2022-12-01T05:20:44.358Z,103085.45
2022-12-01T05:21:49.760Z,103082.67
2022-12-01T05:23:10.865Z,103082.80
2022-12-01T05:24:16.190Z,103081.27
2022-12-01T05:25:19.341Z,103082.49
2022-12-01T05:26:22.282Z,103084.69
2022-12-01T05:27:25.362Z,103084.97
2022-12-01T05:28:28.901Z,103082.61
2022-12-01T05:29:33.078Z,103085.41
2022-12-01T05:30:36.233Z,103085.36
2022-12-01T05:31:41.015Z,103085.90
2022-12-01T05:32:44.494Z,103089.06
2022-12-01T05:33:47.444Z,103088.70
2022-12-01T05:34:50.297Z,103094.19
2022-12-01T05:35:53.694Z,103093.61
2022-12-01T05:36:56.629Z,103092.02
2022-12-01T05:38:04.538Z,103093.66
2022-12-01T05:39:10.405Z,103093.74
2022-12-01T05:40:13.458Z,103100.19
2022-12-01T05:41:16.738Z,103097.49
2022-12-01T05:42:20.024Z,103096.14
2022-12-01T05:43:28.620Z,103098.79
2022-12-01T05:44:32.240Z,103100.09
2022-12-01T05:45:35.695Z,103102.06
2022-12-01T05:46:38.805Z,103096.94
2022-12-01T05:47:41.742Z,103098.52
2022-12-01T05:48:44.953Z,103100.77
2022-12-01T05:49:48.066Z,103098.54
2022-12-01T05:50:51.336Z,103099.44
2022-12-01T05:51:54.282Z,103100.44
2022-12-01T05:52:57.311Z,103103.10
2022-12-01T05:54:00.848Z,103101.77
2022-12-01T05:55:05.540Z,103105.61
2022-12-01T05:56:10.169Z,103105.65
2022-12-01T05:57:13.266Z,103107.27
2022-12-01T05:58:16.399Z,103108.73
2022-12-01T05:59:19.417Z,103108.00
2022-12-01T06:00:22.505Z,103110.11
2022-12-01T06:01:25.473Z,103105.67
2022-12-01T06:02:28.410Z,103108.82
2022-12-01T06:03:31.547Z,103110.63
2022-12-01T06:04:34.737Z,103112.16
2022-12-01T06:05:37.689Z,103110.89
2022-12-01T06:06:40.573Z,103114.03
2022-12-01T06:07:43.720Z,103113.05
2022-12-01T06:08:46.741Z,103111.84
2022-12-01T06:09:50.057Z,103114.42
2022-12-01T06:10:53.194Z,103116.27
2022-12-01T06:11:56.171Z,103115.94
2022-12-01T06:12:59.027Z,103115.66
2022-12-01T06:14:02.162Z,103113.65
2022-12-01T06:15:07.195Z,103114.82
2022-12-01T06:16:10.060Z,103115.56
2022-12-01T06:17:12.980Z,103119.39
2022-12-01T06:18:15.992Z,103116.70
2022-12-01T06:19:18.996Z,103118.03
2022-12-01T06:20:23.433Z,103118.89
2022-12-01T06:21:26.430Z,103119.27
2022-12-01T06:22:29.453Z,103116.83
2022-12-01T06:23:32.839Z,103121.69
2022-12-01T06:24:36.121Z,103125.17
2022-12-01T06:25:39.122Z,103123.23
2022-12-01T06:26:42.069Z,103125.48
2022-12-01T06:27:45.137Z,103126.73
2022-12-01T06:28:48.083Z,103126.31
2022-12-01T06:29:51.443Z,103128.48
2022-12-01T06:31:01.037Z,103133.41
2022-12-01T06:32:06.097Z,103131.23
2022-12-01T06:33:09.216Z,103123.52
2022-12-01T06:34:12.382Z,103127.95
2022-12-01T06:35:15.559Z,103130.36
2022-12-01T06:36:19.207Z,103127.70
2022-12-01T06:37:22.150Z,103129.80
2022-12-01T06:38:25.060Z,103131.16
2022-12-01T06:39:27.968Z,103128.91
2022-12-01T06:40:31.515Z,103135.08
2022-12-01T06:41:34.622Z,103136.55
2022-12-01T06:42:37.604Z,103138.91
2022-12-01T06:43:40.665Z,103142.23
2022-12-01T06:44:43.582Z,103137.92
2022-12-01T06:45:46.675Z,103138.14
2022-12-01T06:46:52.891Z,103140.22
2022-12-01T06:47:57.002Z,103140.70
2022-12-01T06:49:00.087Z,103141.20
2022-12-01T06:50:04.538Z,103144.56
2022-12-01T06:51:07.532Z,103141.06
2022-12-01T06:52:10.636Z,103142.48
2022-12-01T06:53:13.689Z,103141.86
2022-12-01T06:54:18.033Z,103139.69
2022-12-01T06:55:21.411Z,103139.58
2022-12-01T06:56:25.218Z,103140.11
2022-12-01T06:57:28.501Z,103141.93
2022-12-01T06:58:32.434Z,103142.40
2022-12-01T06:59:35.717Z,103144.92
2022-12-01T07:00:39.153Z,103146.94
2022-12-01T07:01:42.242Z,103144.39
2022-12-01T07:02:45.505Z,103142.52
2022-12-01T07:03:51.491Z,103141.54
2022-12-01T07:04:54.702Z,103141.66
2022-12-01T07:05:59.218Z,103141.89
2022-12-01T07:07:03.966Z,103138.89
2022-12-01T07:08:07.683Z,103140.30
2022-12-01T07:09:10.853Z,103142.94
2022-12-01T07:10:14.233Z,103139.54
2022-12-01T07:11:17.181Z,103139.80
2022-12-01T07:12:20.211Z,103143.42
2022-12-01T07:13:23.330Z,103136.42
2022-12-01T07:14:27.260Z,103137.38
2022-12-01T07:15:30.192Z,103141.38
2022-12-01T07:16:33.142Z,103143.73
2022-12-01T07:17:36.555Z,103139.86
2022-12-01T07:18:40.515Z,103136.86
2022-12-01T07:19:43.472Z,103135.06
2022-12-01T07:20:46.422Z,103137.29
2022-12-01T07:21:49.444Z,103134.37
2022-12-01T07:22:54.423Z,103134.06
2022-12-01T07:23:57.552Z,103129.41
2022-12-01T07:25:00.519Z,103129.20
2022-12-01T07:26:12.498Z,103128.45
2022-12-01T07:27:15.428Z,103130.41
2022-12-01T07:28:18.377Z,103130.84
2022-12-01T07:29:21.494Z,103130.43
2022-12-01T07:30:28.448Z,103131.56
2022-12-01T07:31:31.731Z,103134.39
2022-12-01T07:32:34.707Z,103138.88
2022-12-01T07:33:38.053Z,103136.92
2022-12-01T07:34:41.627Z,103137.18
2022-12-01T07:35:44.543Z,103135.55
2022-12-01T07:36:47.405Z,103135.57
2022-12-01T07:37:56.631Z,103136.95
2022-12-01T07:39:00.704Z,103136.57
2022-12-01T07:40:04.596Z,103139.39
2022-12-01T07:41:13.431Z,103136.67
2022-12-01T07:42:16.314Z,103138.54
2022-12-01T07:43:19.200Z,103138.77
2022-12-01T07:44:22.350Z,103142.53
2022-12-01T07:45:25.367Z,103139.73
2022-12-01T07:46:28.998Z,103139.53
2022-12-01T07:47:32.056Z,103139.01
2022-12-01T07:48:37.164Z,103141.71
2022-12-01T07:49:40.165Z,103140.76
2022-12-01T07:50:43.461Z,103142.79
2022-12-01T07:51:46.652Z,103144.71
2022-12-01T07:52:50.843Z,103146.17
2022-12-01T07:53:54.717Z,103145.52
2022-12-01T07:54:57.722Z,103144.70
2022-12-01T07:56:05.691Z,103146.63
2022-12-01T07:57:14.344Z,103147.98
2022-12-01T07:58:17.519Z,103145.85
2022-12-01T07:59:20.544Z,103143.23
2022-12-01T08:00:23.827Z,103143.42
2022-12-01T08:01:27.196Z,103143.83
2022-12-01T08:02:30.200Z,103142.02
2022-12-01T08:03:33.370Z,103147.80
2022-12-01T08:04:36.410Z,103143.24
2022-12-01T08:05:39.514Z,103146.81
2022-12-01T08:06:42.693Z,103145.11
2022-12-01T08:07:45.705Z,103143.55
2022-12-01T08:08:49.512Z,103142.39
2022-12-01T08:09:52.395Z,103142.52
2022-12-01T08:11:00.661Z,103144.89
2022-12-01T08:12:03.851Z,103146.59
2022-12-01T08:13:06.900Z,103144.06
2022-12-01T08:14:09.810Z,103144.97
2022-12-01T08:15:12.823Z,103140.48
2022-12-01T08:16:18.428Z,103144.85
2022-12-01T08:17:21.642Z,103146.30
2022-12-01T08:18:24.855Z,103143.98
2022-12-01T08:19:29.298Z,103147.31
2022-12-01T08:20:32.186Z,103145.48
2022-12-01T08:21:37.704Z,103143.27
2022-12-01T08:22:40.928Z,103146.06
2022-12-01T08:23:44.930Z,103145.27
2022-12-01T08:24:47.790Z,103146.05
2022-12-01T08:25:52.537Z,103148.14
2022-12-01T08:26:55.762Z,103149.34
2022-12-01T08:28:00.479Z,103146.35
2022-12-01T08:29:03.403Z,103144.23
2022-12-01T08:30:07.171Z,103146.36
2022-12-01T08:31:31.829Z,103148.94
2022-12-01T08:32:34.822Z,103151.78
2022-12-01T08:33:38.329Z,103150.10
2022-12-01T08:34:41.500Z,103152.52
2022-12-01T08:35:44.702Z,103147.83
2022-12-01T08:36:48.297Z,103150.60
2022-12-01T08:37:54.523Z,103149.04
2022-12-01T08:38:57.588Z,103151.02
2022-12-01T08:40:00.783Z,103150.23
2022-12-01T08:41:23.994Z,103150.66
2022-12-01T08:42:36.123Z,103154.30
2022-12-01T08:44:00.753Z,103152.30
2022-12-01T08:45:05.234Z,103153.05
2022-12-01T08:46:09.103Z,103153.30
2022-12-01T08:47:15.694Z,103152.02
2022-12-01T08:48:21.704Z,103151.45
2022-12-01T08:49:24.865Z,103153.08
2022-12-01T08:50:28.540Z,103150.78
2022-12-01T08:51:32.160Z,103153.35
2022-12-01T08:52:35.509Z,103154.08
2022-12-01T08:53:45.527Z,103157.10
2022-12-01T08:54:48.907Z,103154.52
2022-12-01T08:55:52.151Z,103155.04
2022-12-01T08:56:55.071Z,103156.40
2022-12-01T08:57:58.107Z,103157.84
2022-12-01T08:59:01.313Z,103158.39
2022-12-01T09:00:05.560Z,103158.64
2022-12-01T09:01:11.619Z,103157.66
2022-12-01T09:02:16.069Z,103160.16
2022-12-01T09:03:19.183Z,103157.09
2022-12-01T09:04:25.236Z,103159.89
2022-12-01T09:05:28.582Z,103152.77
2022-12-01T09:06:34.300Z,103146.75
2022-12-01T09:07:37.267Z,103148.14
2022-12-01T09:08:41.219Z,103142.17
2022-12-01T09:09:45.464Z,103140.38
2022-12-01T09:10:52.504Z,103146.31
2022-12-01T09:11:55.987Z,103143.05
2022-12-01T09:12:59.126Z,103148.20
2022-12-01T09:14:02.059Z,103147.19
2022-12-01T09:15:05.509Z,103149.98
2022-12-01T09:16:14.482Z,103146.29
2022-12-01T09:17:17.804Z,103149.21
2022-12-01T09:18:21.014Z,103145.89
2022-12-01T09:19:25.322Z,103149.90
2022-12-01T09:20:28.409Z,103152.39
2022-12-01T09:21:33.200Z,103149.70
2022-12-01T09:22:36.350Z,103145.08
2022-12-01T09:23:39.676Z,103141.00
2022-12-01T09:24:42.628Z,103142.23
2022-12-01T09:25:45.637Z,103135.27
2022-12-01T09:26:48.744Z,103134.74
2022-12-01T09:27:51.883Z,103133.48
2022-12-01T09:29:06.417Z,103133.61
2022-12-01T09:30:10.085Z,103131.60
2022-12-01T09:31:13.821Z,103135.73
2022-12-01T09:32:16.888Z,103135.91
2022-12-01T09:33:19.990Z,103137.61
2022-12-01T09:34:23.287Z,103133.64
2022-12-01T09:35:26.354Z,103133.73
2022-12-01T09:36:31.448Z,103136.24
2022-12-01T09:37:34.344Z,103137.05
2022-12-01T09:38:38.677Z,103133.17
2022-12-01T09:39:41.612Z,103135.51
2022-12-01T09:40:44.683Z,103136.35
2022-12-01T09:42:22.264Z,103134.09
2022-12-01T09:43:29.792Z,103134.41
2022-12-01T09:44:39.229Z,103132.52
2022-12-01T09:45:47.505Z,103129.69
2022-12-01T09:46:55.383Z,103126.45
2022-12-01T09:48:03.366Z,103127.52
2022-12-01T09:49:12.303Z,103126.91
2022-12-01T09:50:20.275Z,103127.60
2022-12-01T09:51:26.526Z,103125.33
2022-12-01T09:52:34.407Z,103120.42
2022-12-01T09:53:38.799Z,103122.45
2022-12-01T09:54:41.874Z,103118.23
2022-12-01T09:55:44.948Z,103115.80
2022-12-01T09:56:50.629Z,103113.08
2022-12-01T09:57:55.813Z,103112.84
2022-12-01T09:59:02.380Z,103118.38
2022-12-01T10:00:16.465Z,103117.55
2022-12-01T10:01:31.666Z,103121.33
2022-12-01T10:02:37.437Z,103120.90
2022-12-01T10:03:48.391Z,103122.17
2022-12-01T10:04:52.261Z,103120.66
2022-12-01T10:07:52.109Z,103115.55
2022-12-01T10:09:05.648Z,103114.43
2022-12-01T10:10:18.034Z,103114.20
2022-12-01T10:11:35.655Z,103112.91
2022-12-01T10:12:44.076Z,103113.19
2022-12-01T10:13:47.020Z,103111.58
2022-12-01T10:14:50.762Z,103107.04
2022-12-01T10:15:53.671Z,103108.33
2022-12-01T10:17:15.532Z,103108.42
2022-12-01T10:18:36.651Z,103108.08
2022-12-01T10:19:58.837Z,103102.95
2022-12-01T10:21:33.069Z,103102.23
2022-12-01T10:23:09.902Z,103102.19
2022-12-01T10:24:34.202Z,103104.17
2022-12-01T10:25:52.098Z,103106.67
2022-12-01T10:27:43.241Z,103108.09
2022-12-01T10:28:58.220Z,103114.71
2022-12-01T10:30:25.262Z,103114.46
2022-12-01T10:31:53.173Z,103108.58
2022-12-01T10:33:14.354Z,103105.09
2022-12-01T10:34:34.725Z,103101.65
2022-12-01T10:35:39.425Z,103105.02
2022-12-01T10:36:42.579Z,103106.15
2022-12-01T10:37:47.485Z,103102.20
2022-12-01T10:38:50.477Z,103102.63
2022-12-01T10:39:55.817Z,103100.88
2022-12-01T10:41:01.307Z,103100.52
2022-12-01T10:42:10.531Z,103101.83
2022-12-01T10:43:14.138Z,103100.48
2022-12-01T10:44:18.776Z,103101.85
2022-12-01T10:45:24.737Z,103098.91
2022-12-01T10:46:39.681Z,103098.81
2022-12-01T10:48:09.335Z,103098.64
2022-12-01T10:49:14.952Z,103099.50
2022-12-01T10:50:28.094Z,103103.84
2022-12-01T10:51:31.276Z,103099.06
2022-12-01T10:52:40.322Z,103097.58
2022-12-01T10:53:43.424Z,103095.67
2022-12-01T10:54:46.429Z,103096.98
2022-12-01T10:55:58.927Z,103097.17
2022-12-01T10:57:03.122Z,103096.48
2022-12-01T10:58:14.649Z,103099.93
2022-12-01T10:59:26.003Z,103099.04
2022-12-01T11:01:59.549Z,103099.78
2022-12-01T11:03:04.335Z,103098.30
2022-12-01T11:04:24.821Z,103097.98
2022-12-01T11:05:32.953Z,103097.36
2022-12-01T11:06:37.455Z,103094.88
2022-12-01T11:07:47.085Z,103095.29
2022-12-01T11:08:57.722Z,103097.58
2022-12-01T11:10:39.338Z,103097.11
2022-12-01T11:11:42.711Z,103101.34
2022-12-01T11:12:55.407Z,103100.29
2022-12-01T11:14:02.509Z,103099.23
2022-12-01T11:15:06.546Z,103098.56
2022-12-01T11:16:37.492Z,103098.48
2022-12-01T11:17:44.876Z,103097.45
2022-12-01T11:18:47.945Z,103099.16
2022-12-01T11:19:51.302Z,103102.63
2022-12-01T11:21:12.318Z,103097.70
2022-12-01T11:22:33.475Z,103097.63
2022-12-01T11:23:39.054Z,103098.31
2022-12-01T11:24:57.048Z,103096.77
2022-12-01T11:26:05.465Z,103097.57
2022-12-01T11:27:16.888Z,103097.05
2022-12-01T11:28:20.955Z,103100.30
2022-12-01T11:29:36.393Z,103098.38
2022-12-01T11:30:39.347Z,103095.83
2022-12-01T11:31:46.915Z,103088.98
2022-12-01T11:33:00.001Z,103082.44
2022-12-01T11:34:03.216Z,103083.05
2022-12-01T11:35:21.974Z,103083.20
2022-12-01T11:36:37.699Z,103086.97
2022-12-01T11:38:13.292Z,103086.98
2022-12-01T11:39:24.678Z,103088.94
2022-12-01T11:40:33.544Z,103090.84
2022-12-01T11:41:40.327Z,103087.98
2022-12-01T11:42:52.139Z,103084.13
2022-12-01T11:44:01.452Z,103083.70
2022-12-01T11:45:23.727Z,103076.35
2022-12-01T11:46:34.174Z,103077.92
2022-12-01T11:48:01.511Z,103083.24
2022-12-01T11:49:04.773Z,103082.59
2022-12-01T11:50:25.098Z,103083.98
2022-12-01T11:51:38.240Z,103087.33
2022-12-01T11:52:47.455Z,103085.15
2022-12-01T11:54:06.489Z,103083.23
2022-12-01T11:55:12.591Z,103079.42
2022-12-01T11:56:20.764Z,103080.86
2022-12-01T11:57:39.466Z,103080.48
2022-12-01T11:58:43.419Z,103084.61
2022-12-01T11:59:47.265Z,103084.20
2022-12-01T12:00:56.143Z,103087.54
2022-12-01T12:02:18.056Z,103087.88
2022-12-01T12:03:29.441Z,103085.52
2022-12-01T12:04:57.207Z,103080.97
2022-12-01T12:06:38.365Z,103080.95
2022-12-01T12:07:52.532Z,103084.81
2022-12-01T12:09:10.784Z,103086.46
2022-12-01T12:10:36.267Z,103082.58
2022-12-01T12:11:49.962Z,103082.30
2022-12-01T12:13:20.357Z,103076.44
2022-12-01T12:14:32.209Z,103080.33
2022-12-01T12:15:50.333Z,103079.63
2022-12-01T12:17:07.016Z,103076.91
2022-12-01T12:18:38.068Z,103079.02
2022-12-01T12:20:12.203Z,103078.61
2022-12-01T12:21:30.354Z,103079.65
2022-12-01T12:22:55.397Z,103080.92
2022-12-01T12:24:25.544Z,103080.46
2022-12-01T12:25:34.655Z,103081.96
2022-12-01T12:27:16.012Z,103082.04
2022-12-01T12:28:57.595Z,103079.82
2022-12-01T12:30:24.316Z,103080.38
2022-12-01T12:32:02.994Z,103080.05
2022-12-01T12:33:18.997Z,103081.29
2022-12-01T12:34:30.091Z,103080.83
2022-12-01T12:35:33.118Z,103084.16
2022-12-01T12:37:14.527Z,103082.35
2022-12-01T12:38:29.536Z,103077.14
2022-12-01T12:39:57.516Z,103081.65
2022-12-01T12:41:29.725Z,103078.78
2022-12-01T12:42:50.961Z,103078.30
2022-12-01T12:44:18.531Z,103076.64
2022-12-01T12:45:47.531Z,103076.45
2022-12-01T12:47:29.379Z,103070.23
2022-12-01T12:49:25.538Z,103073.04
2022-12-01T12:50:36.819Z,103073.68
2022-12-01T12:52:08.140Z,103072.23
2022-12-01T12:53:20.141Z,103071.93
2022-12-01T12:54:49.420Z,103074.52
2022-12-01T12:55:58.106Z,103071.38
2022-12-01T12:57:05.935Z,103070.18
2022-12-01T12:58:21.747Z,103074.09
2022-12-01T12:59:30.044Z,103071.02
2022-12-01T13:00:35.277Z,103068.93
2022-12-01T13:01:43.270Z,103068.05
2022-12-01T13:02:55.329Z,103064.49
2022-12-01T13:04:09.467Z,103066.15